Weather observations for the past three days for
VIGIE/ST LUCIA
Metric (Imperial)
Date Time (ast) Wind (kph) Vis. (km) Weather Sky Cond. Temperature (ºC) Relative Humidity Wind Chill (°C) Heat Index (°C) Pressure Precipitation (cm)
Air Dwpt 6 hour altimeter (cm) sea level (mb) 1 hr 3 hr 6 hr
Max. Min.
04 20:00 E 9 0.00 A Few Clouds FEW026 27 22 74% 29 0 0.0
04 19:00 SE 11 0.00 A Few Clouds FEW026 28 22 70% 31 0 0.0
04 18:00 SE 13 0.00 A Few Clouds FEW026 28 21 66% 30 0 0.0
04 17:00 E 20 0.00 A Few Clouds FEW026 30 21 59% 33 0 0.0
04 16:00 E 17 0.00 A Few Clouds FEW026 31 21 55% 34 0 0.0
04 15:00 E 20 0.00 A Few Clouds FEW026 31 21 55% 34 0 0.0
04 14:00 E 20 0.00 A Few Clouds FEW026 30 21 59% 33 0 0.0
04 13:00 E 22 0.00 A Few Clouds FEW026 31 21 55% 34 0 0.0
04 12:00 E 22 0.00 A Few Clouds FEW026 30 21 59% 33 0 0.0
04 11:00 SE 20 0.00 A Few Clouds FEW026 31 21 55% 34 0 0.0
04 10:00 E 15 0.00 A Few Clouds FEW026 30 22 62% 33 0 0.0
04 09:00 E 17 0.00 A Few Clouds FEW026 30 22 62% 33 0 0.0
04 08:00 E 15 0.00 A Few Clouds FEW026 29 22 66% 32 0 0.0
03 20:00 E 11 0.00 A Few Clouds FEW026 27 22 74% 29 0 0.0
03 19:00 E 11 0.00 A Few Clouds FEW026 27 22 74% 29 0 0.0
03 18:00 SE 15 0.00 A Few Clouds FEW026 29 22 66% 32 0 0.0
03 17:00 E 19 0.00 A Few Clouds FEW026 29 22 66% 32 0 0.0
03 16:00 E 22 0.00 NULL NULL 31 22 59% 35 0 0.0
03 15:00 SE 20 0.00 A Few Clouds FEW026 31 20 52% 33 0 0.0
03 14:00 E 22 0.00 A Few Clouds FEW026 31 22 59% 35 0 0.0
03 13:00 E 22 0.00 Partly Cloudy SCT026 30 22 62% 33 0 0.0
03 12:00 E 22 0.00 Partly Cloudy SCT026 30 21 59% 33 0 0.0
03 11:00 E 22 0.00 A Few Clouds FEW026 30 21 59% 33 0 0.0
03 08:00 E 15 0.00 Partly Cloudy SCT022 28 24 79% 32 0 0.0
03 06:00 E 13 0.00 A Few Clouds FEW022 26 23 84% 28 0 0.0
03 05:00 E 13 0.00 Partly Cloudy SCT022 26 23 84% 28 0 0.0
02 22:00 E 11 0.00 A Few Clouds FEW022 27 22 74% 29 0 0.0
02 21:00 E 11 0.00 A Few Clouds FEW022 27 22 74% 29 0 0.0
02 20:00 E 15 0.00 A Few Clouds FEW022 27 22 74% 29 0 0.0
02 19:00 E 11 0.00 A Few Clouds FEW022 27 22 74% 29 0 0.0
02 18:00 E 13 0.00 A Few Clouds FEW023 28 22 70% 31 0 0.0
02 17:00 SE 20 0.00 A Few Clouds FEW024 29 21 62% 31 0 0.0
02 16:00 SE 19 0.00 Partly Cloudy SCT025 30 21 59% 33 0 0.0
02 15:00 E 19 0.00 Partly Cloudy SCT026 30 21 59% 33 0 0.0
02 14:00 SE 19 0.00 Partly Cloudy SCT026 31 22 59% 35 0 0.0
02 13:00 E 24 0.00 Partly Cloudy SCT026 31 22 59% 35 0 0.0
02 12:00 E 22 0.00 Partly Cloudy SCT026 31 22 59% 35 0 0.0
02 11:00 E 24 0.00 Partly Cloudy SCT024 30 22 62% 33 0 0.0
02 10:00 SE 17 0.00 Partly Cloudy SCT022 29 23 70% 33 0 0.0
02 09:00 SE 17 0.00 Partly Cloudy SCT022 29 23 70% 33 0 0.0
02 08:00 E 11 0.00 Showers in Vicinity BKN018 SCT036 26 24 89% 28 0 0.0
Date Time (ast) Wind (kph) Vis. (km) Weather Sky Cond. Air Dwpt Max. Min. Relative Humidity Wind Chill (°C) Heat Index (°C) altimeter (cm) sea level (mb) 1 hr 3 hr 6 hr
6 hour
Temperature (ºC) Pressure Precipitation (cm)